Bookmark and Share
Track history (hours):
 

Cap Felix

Last reported at 2014-Apr-20 08:31 UTC. Time now 2014-Apr-20 13:24 UTC.
Position N 56°05' E 016°49'.

Length 275 m; draft 8.8 m.

Type: Tanker. MMSI: 205517000.

NotesDate/timePositionNaut miles runAvg speedWind from/ knotsBaromVisibWave heightAir tempDewpointWater temp
2014-Apr-20 08:31N 56°05' E 016°49'1010.0
2014-Apr-20 07:33N 55°59' E 016°35'1010.1
2014-Apr-20 06:33N 55°54' E 016°20'1110.1
2014-Apr-20 05:29N 55°48' E 016°03'9 9.9
2014-Apr-20 04:33N 55°43' E 015°50'1010.0
2014-Apr-20 03:33N 55°37' E 015°35'1010.0
2014-Apr-20 02:33N 55°32' E 015°20'1010.0
2014-Apr-20 01:33N 55°26' E 015°05'1010.3
2014-Apr-20 00:33N 55°20' E 014°52'9 8.9
2014-Apr-19 23:33N 55°16' E 014°37'1111.0
2014-Apr-19 22:33N 55°09' E 014°24'1111.1
2014-Apr-19 21:33N 55°01' E 014°10'1111.0
2014-Apr-19 20:33N 54°57' E 013°51'1111.0
2014-Apr-19 19:33N 54°54' E 013°33'1010.1
2014-Apr-19 18:33N 54°51' E 013°17'1110.5
2014-Apr-19 17:33N 54°48' E 012°59'1110.6
2014-Apr-19 16:33N 54°44' E 012°42'1110.8
2014-Apr-19 15:33N 54°38' E 012°26'1110.6
2014-Apr-19 14:33N 54°30' E 012°15'9 9.4
2014-Apr-19 13:33N 54°25' E 012°02'1010.2
2014-Apr-19 12:34N 54°25' E 011°44'1110.7
2014-Apr-19 11:33N 54°30' E 011°28'1211.6
2014-Apr-19 10:33N 54°35' E 011°10'1510.8
2014-Apr-19 09:11N 54°45' E 010°51'710.9
2014-Apr-19 08:33N 54°52' E 010°53'1110.9
2014-Apr-19 07:33N 55°02' E 011°01'1110.9
2014-Apr-19 06:33N 55°12' E 011°06'8610.2
2014-Apr-18 22:07N 56°36' E 011°42'610.9
2014-Apr-18 21:33N 56°42' E 011°47'1111.0
2014-Apr-18 20:33N 56°53' E 011°47'1211.7
2014-Apr-18 19:33N 57°04' E 011°40'1211.9
2014-Apr-18 18:33N 57°15' E 011°33'1211.7
2014-Apr-18 17:33N 57°26' E 011°25'1211.8
2014-Apr-18 16:33N 57°35' E 011°10'1211.6
2014-Apr-18 15:33N 57°42' E 010°54'1010.3
2014-Apr-18 14:33N 57°47' E 010°37'1211.7
2014-Apr-18 13:33N 57°47' E 010°15'1110.6
2014-Apr-18 12:33N 57°46' E 009°55'232 9.3
2014-Apr-17 11:31N 54°48' E 005°28'1110.9
2014-Apr-17 10:33N 54°38' E 005°20'1111.1
2014-Apr-17 09:33N 54°28' E 005°13'1111.2
2014-Apr-17 08:33N 54°17' E 005°05'1211.6
2014-Apr-17 07:33N 54°07' E 004°57'1111.4
2014-Apr-17 06:33N 53°56' E 004°54'1211.8
2014-Apr-17 05:33N 53°44' E 004°52'1212.1
2014-Apr-17 04:34N 53°32' E 004°47'1211.7
2014-Apr-17 03:33N 53°21' E 004°40'1111.1
2014-Apr-17 02:33N 53°12' E 004°31'1110.8
2014-Apr-17 01:33N 53°02' E 004°23'1110.6
2014-Apr-17 00:33N 52°52' E 004°16'1010.2
2014-Apr-16 23:33N 52°44' E 004°06'1010.0
2014-Apr-16 22:33N 52°37' E 003°55'10 9.7
2014-Apr-16 21:33N 52°30' E 003°43'9 9.5
2014-Apr-16 20:33N 52°23' E 003°32'10 9.8
2014-Apr-16 19:33N 52°16' E 003°21'1110.6
2014-Apr-16 18:33N 52°09' E 003°09'1111.1
2014-Apr-16 17:33N 52°01' E 002°57'1712.0
2014-Apr-16 16:09N 51°48' E 002°38'812.5
2014-Apr-16 15:33N 51°42' E 002°31'1312.8
2014-Apr-16 14:33N 51°32' E 002°18'1312.9
2014-Apr-16 13:33N 51°21' E 002°10'1211.8
2014-Apr-16 12:34N 51°11' E 001°58'1313.1
2014-Apr-16 11:33N 51°04' E 001°41'1312.7
2014-Apr-16 10:33N 50°54' E 001°28'1111.4
2014-Apr-16 09:33N 50°43' E 001°23'1211.1
2014-Apr-16 08:30N 50°35' E 001°09'1111.9
2014-Apr-16 07:33N 50°29' E 000°54'1110.9
2014-Apr-16 06:33N 50°26' E 000°38'1010.0
2014-Apr-16 05:34N 50°24' E 000°23'10 9.4
2014-Apr-16 04:32N 50°21' E 000°08'9 9.1
2014-Apr-16 03:32N 50°18' W 000°05'9 8.4
2014-Apr-16 02:30N 50°17' W 000°19'9 8.3
2014-Apr-16 01:28N 50°15' W 000°32'8 8.6
2014-Apr-16 00:33N 50°13' W 000°44'10 9.5
2014-Apr-15 23:32N 50°10' W 000°58'1111.0
2014-Apr-15 22:34N 50°08' W 001°14'1412.5
2014-Apr-15 21:25N 50°04' W 001°36'  
2014-Apr-12 14:20N 38°41' W 009°51'1010.4
2014-Apr-12 13:22N 38°32' W 009°48'1910.4
2014-Apr-12 11:32N 38°13' W 009°43'1010.5
2014-Apr-12 10:33N 38°03' W 009°40'1210.6
2014-Apr-12 09:23N 37°51' W 009°36'910.5
2014-Apr-12 08:33N 37°42' W 009°34'1010.4
2014-Apr-12 07:33N 37°32' W 009°31'1010.4
2014-Apr-12 06:33N 37°22' W 009°28'1010.3
2014-Apr-12 05:33N 37°12' W 009°25'1010.5
2014-Apr-12 04:34N 37°02' W 009°22'1010.1
2014-Apr-12 03:33N 36°52' W 009°18'1010.4
2014-Apr-12 02:32N 36°45' W 009°09'1010.5
2014-Apr-12 01:33N 36°42' W 008°57'1010.3
2014-Apr-12 00:33N 36°38' W 008°44'1010.5
2014-Apr-11 23:33N 36°35' W 008°32'2210.3
2014-Apr-11 21:23N 36°28' W 008°06'1010.2
2014-Apr-11 20:22N 36°25' W 007°53'1310.4
2014-Apr-11 19:05N 36°21' W 007°38'610.6
2014-Apr-11 18:30N 36°19' W 007°30'1010.7
2014-Apr-11 17:33N 36°15' W 007°19'1110.6
2014-Apr-11 16:33N 36°12' W 007°06'1110.6
2014-Apr-11 15:33N 36°09' W 006°54'1110.7
2014-Apr-11 14:33N 36°05' W 006°41'1110.9
2014-Apr-11 13:33N 36°02' W 006°28'1111.2
2014-Apr-11 12:34N 35°58' W 006°15'1111.3
2014-Apr-11 11:34N 35°57' W 006°01'1311.6
2014-Apr-11 10:27N 35°57' W 005°46'1111.8
2014-Apr-11 09:33N 35°58' W 005°33'10 9.7
2014-Apr-11 08:33N 36°01' W 005°21'10 9.6
2014-Apr-11 07:34N 36°03' W 005°10'  

Dump ship's entire track history

sailing weather and tide predictions

Cap Felix — ONFH — position and weather